Time;durP1;ratioP1;P1;durP2;ratioP2;P2;SDS_P1;SDS_P2;PMS_P1;PMS_P2;Temp;Humidity;BMP_temperature;BMP_pressure;BME280_temperature;BME280_humidity;BME280_pressure;Samples;Min_cycle;Max_cycle;Signal;HPM_P1;HPM_P2
2022/09/06 00:01:21;;;;;;;9.53;5.85;;;;;;;9.67;71.07;102523.88;1523280;91;21823;-84
2022/09/06 00:03:56;;;;;;;9.53;6.12;;;;;;;9.72;70.97;102516.23;1571929;90;21258;-85
2022/09/06 00:06:23;;;;;;;10.08;5.62;;;;;;;9.76;70.89;102514.31;1559874;91;21402;-85
2022/09/06 00:08:50;;;;;;;10.32;5.30;;;;;;;9.80;70.83;102513.66;1559783;91;21154;-85
2022/09/06 00:11:17;;;;;;;8.43;5.30;;;;;;;9.83;70.78;102516.44;1569950;90;21145;-85
2022/09/06 00:13:44;;;;;;;12.28;5.47;;;;;;;9.84;70.68;102510.80;1565898;90;21966;-84
2022/09/06 00:16:20;;;;;;;10.55;5.85;;;;;;;9.80;70.56;102512.73;1581640;90;21221;-84
2022/09/06 00:18:47;;;;;;;10.85;6.40;;;;;;;9.75;70.54;102519.06;1576440;90;22492;-85
2022/09/06 00:21:18;;;;;;;13.70;5.85;;;;;;;9.68;70.55;102512.53;1580032;90;21698;-84
2022/09/06 00:23:44;;;;;;;10.20;5.80;;;;;;;9.62;70.56;102516.55;1577654;90;21612;-85
2022/09/06 00:26:12;;;;;;;11.10;5.70;;;;;;;9.53;70.60;102516.53;1569580;91;21916;-84
2022/09/06 00:28:38;;;;;;;11.53;5.33;;;;;;;9.49;70.67;102528.98;1569852;91;21088;-85
2022/09/06 00:31:25;;;;;;;11.55;5.50;;;;;;;9.43;70.75;102526.00;1579055;90;21128;-84
2022/09/06 00:33:55;;;;;;;7.83;5.10;;;;;;;9.37;70.83;102518.19;1574945;90;21117;-85
2022/09/06 00:36:22;;;;;;;10.30;5.12;;;;;;;9.30;70.91;102513.86;1570072;90;21274;-85
2022/09/06 00:38:50;;;;;;;9.48;5.17;;;;;;;9.26;71.01;102509.67;1529133;93;21793;-84
2022/09/06 00:41:17;;;;;;;7.85;4.78;;;;;;;9.20;71.07;102512.84;1528670;92;21647;-85
2022/09/06 00:43:43;;;;;;;6.33;4.30;;;;;;;9.19;71.15;102519.31;1528547;91;21146;-84
2022/09/06 00:46:15;;;;;;;9.83;4.75;;;;;;;9.15;71.23;102518.22;1497923;93;21213;-84
2022/09/06 00:48:42;;;;;;;8.98;4.53;;;;;;;9.12;71.32;102521.97;1523588;93;21192;-85
2022/09/06 00:51:10;;;;;;;6.62;4.50;;;;;;;9.10;71.35;102522.29;1547683;91;21769;-85
2022/09/06 00:53:37;;;;;;;6.35;4.08;;;;;;;9.07;71.41;102516.88;1561283;91;21749;-86
2022/09/06 00:56:05;;;;;;;5.65;4.10;;;;;;;9.05;71.50;102513.26;1563857;91;21100;-85
2022/09/06 00:58:32;;;;;;;8.60;4.28;;;;;;;9.06;71.52;102516.36;1536768;92;21113;-85
2022/09/06 01:03:37;;;;;;;8.30;4.40;;;;;;;9.02;71.58;102510.44;1552668;91;21874;-84
2022/09/06 01:06:23;;;;;;;8.10;4.03;;;;;;;9.01;71.64;102512.55;1552130;91;21139;-87
2022/09/06 01:09:35;;;;;;;7.78;4.17;;;;;;;8.99;71.58;102514.18;1552002;91;21129;-85
2022/09/06 01:12:16;;;;;;;5.92;4.00;;;;;;;8.93;71.62;102511.70;1544468;91;21661;-87
2022/09/06 01:15:33;;;;;;;7.30;4.53;;;;;;;8.90;71.75;102507.58;1531893;91;21117;-87
2022/09/06 01:18:33;;;;;;;8.08;4.33;;;;;;;8.88;71.83;102507.89;1541769;92;22674;-88
2022/09/06 01:21:22;;;;;;;8.45;5.12;;;;;;;8.87;71.90;102502.54;1543124;91;21841;-88
2022/09/06 01:24:12;;;;;;;7.17;4.30;;;;;;;8.86;71.97;102510.84;1529143;92;21145;-87
2022/09/06 01:27:00;;;;;;;5.12;3.83;;;;;;;8.85;72.06;102510.73;1520361;93;21145;-87
2022/09/06 01:29:52;;;;;;;8.73;4.00;;;;;;;8.83;72.16;102508.02;1524780;93;21670;-85
2022/09/06 01:32:45;;;;;;;6.70;3.83;;;;;;;8.87;72.27;102509.11;1529358;91;21771;-86
2022/09/06 01:35:26;;;;;;;7.60;4.25;;;;;;;8.91;72.39;102513.30;1529257;91;21220;-86
2022/09/06 01:37:54;;;;;;;9.55;4.40;;;;;;;8.97;72.49;102503.99;1529306;91;21145;-88
2022/09/06 01:40:23;;;;;;;9.50;4.58;;;;;;;9.04;72.47;102501.82;1529252;92;21184;-86
2022/09/06 01:42:49;;;;;;;6.37;3.75;;;;;;;9.09;72.45;102500.80;1529335;92;21603;-86
2022/09/06 01:45:58;;;;;;;8.48;4.05;;;;;;;9.15;72.39;102504.67;1510159;93;22211;-85
2022/09/06 01:48:43;;;;;;;8.63;4.67;;;;;;;9.19;72.34;102504.45;1542625;91;21088;-84
2022/09/06 01:51:28;;;;;;;10.30;4.35;;;;;;;9.26;72.27;102513.19;1528626;92;21122;-84
2022/09/06 01:54:14;;;;;;;7.55;5.20;;;;;;;9.30;72.26;102515.17;1528994;91;21628;-85
2022/09/06 01:57:15;;;;;;;9.15;5.03;;;;;;;9.36;72.29;102518.57;1532270;92;21133;-84
2022/09/06 01:59:54;;;;;;;8.70;4.67;;;;;;;9.42;72.30;102518.95;1539502;91;22680;-86
2022/09/06 02:02:35;;;;;;;9.13;4.50;;;;;;;9.50;72.32;102520.29;1537192;93;21683;-85
2022/09/06 02:05:10;;;;;;;7.47;4.60;;;;;;;9.58;72.24;102519.41;1547328;90;21116;-84
2022/09/06 02:07:37;;;;;;;9.73;5.20;;;;;;;9.65;72.22;102516.32;1555925;91;21779;-84
2022/09/06 02:10:18;;;;;;;8.68;4.97;;;;;;;9.71;72.16;102515.34;1544440;91;21178;-85
2022/09/06 02:12:45;;;;;;;6.53;4.33;;;;;;;9.78;72.12;102516.61;1538328;92;21451;-84
2022/09/06 02:15:25;;;;;;;8.08;4.67;;;;;;;9.87;72.11;102518.83;1547707;91;21140;-84
2022/09/06 02:18:13;;;;;;;10.80;4.75;;;;;;;9.95;72.04;102515.31;1524876;91;21163;-84
2022/09/06 02:20:48;;;;;;;7.95;4.97;;;;;;;10.02;71.99;102513.14;1559201;91;21738;-86
2022/09/06 02:23:15;;;;;;;9.43;4.87;;;;;;;10.11;71.91;102511.41;1554908;90;21450;-84
2022/09/06 02:25:47;;;;;;;7.78;4.35;;;;;;;10.17;71.81;102515.68;1568141;90;21896;-84
2022/09/06 02:28:13;;;;;;;7.08;4.30;;;;;;;10.21;71.72;102515.05;1535373;91;22291;-84
2022/09/06 02:30:47;;;;;;;7.87;4.62;;;;;;;10.25;71.68;102522.29;1543311;92;21638;-84
2022/09/06 02:33:17;;;;;;;8.90;4.72;;;;;;;10.28;71.62;102522.44;1512138;93;27177;-84
2022/09/06 02:35:47;;;;;;;10.15;5.47;;;;;;;10.34;71.51;102516.63;1515307;93;21137;-84
2022/09/06 02:38:15;;;;;;;10.85;5.12;;;;;;;10.33;71.32;102517.48;1562907;88;21924;-84
2022/09/06 02:40:42;;;;;;;10.20;5.20;;;;;;;10.26;71.22;102514.87;1545407;90;21728;-84
2022/09/06 02:43:09;;;;;;;8.20;4.97;;;;;;;10.21;71.23;102511.50;1543502;91;21947;-84
2022/09/06 02:45:37;;;;;;;7.87;4.80;;;;;;;10.09;71.32;102495.95;1546912;91;21197;-84
2022/09/06 02:48:04;;;;;;;7.92;4.75;;;;;;;10.13;71.42;102509.77;1549069;90;21170;-84
2022/09/06 02:50:30;;;;;;;7.17;4.78;;;;;;;10.14;71.58;102508.95;1527579;92;21793;-84
2022/09/06 02:53:04;;;;;;;10.03;4.85;;;;;;;10.20;71.71;102513.65;1526248;92;21634;-84
2022/09/06 02:55:30;;;;;;;9.58;5.37;;;;;;;10.28;71.84;102514.54;1504811;93;21222;-84
2022/09/06 02:57:57;;;;;;;9.80;5.10;;;;;;;10.40;71.80;102504.22;1536281;92;21156;-84
2022/09/06 03:00:25;;;;;;;9.33;4.62;;;;;;;10.50;71.73;102501.27;1505750;93;21151;-84
2022/09/06 03:02:52;;;;;;;9.28;5.47;;;;;;;10.55;71.59;102506.38;1538785;92;22597;-84
2022/09/06 03:05:19;;;;;;;10.48;4.87;;;;;;;10.61;71.54;102504.48;1523258;92;21105;-84
2022/09/06 03:07:46;;;;;;;7.70;4.85;;;;;;;10.64;71.52;102496.34;1565426;91;21741;-84
2022/09/06 03:10:12;;;;;;;7.75;4.97;;;;;;;10.69;71.48;102502.72;1563358;91;21673;-84
2022/09/06 03:12:41;;;;;;;8.70;4.85;;;;;;;10.74;71.34;102505.62;1563639;91;21197;-87
2022/09/06 03:15:10;;;;;;;14.83;5.50;;;;;;;10.75;71.33;102501.25;1548729;90;21784;-84
2022/09/06 03:17:36;;;;;;;12.55;6.08;;;;;;;10.79;71.24;102500.19;1544542;91;21102;-86
2022/09/06 03:20:04;;;;;;;9.48;4.85;;;;;;;10.81;71.14;102502.88;1547662;91;21208;-85
2022/09/06 03:22:34;;;;;;;9.00;5.05;;;;;;;10.83;71.19;102503.47;1562068;91;21734;-84
2022/09/06 03:25:01;;;;;;;7.28;4.53;;;;;;;10.87;71.07;102502.80;1528156;92;21577;-84
2022/09/06 03:27:28;;;;;;;9.40;5.03;;;;;;;10.87;71.07;102494.89;1528008;93;21781;-85
2022/09/06 03:29:55;;;;;;;9.10;4.97;;;;;;;10.89;71.09;102494.55;1527106;93;21121;-84
2022/09/06 03:32:21;;;;;;;12.18;5.60;;;;;;;10.93;71.07;102494.72;1521001;93;21568;-84
2022/09/06 03:34:48;;;;;;;8.43;5.42;;;;;;;10.98;71.00;102495.84;1527875;92;21213;-84
2022/09/06 03:37:15;;;;;;;7.33;4.45;;;;;;;10.98;71.00;102494.14;1540057;92;21152;-84
2022/09/06 03:39:42;;;;;;;8.55;5.60;;;;;;;11.00;70.96;102495.11;1538208;92;21688;-83
2022/09/06 03:42:09;;;;;;;8.63;5.45;;;;;;;11.01;70.86;102504.81;1527754;93;21210;-86
2022/09/06 03:44:36;;;;;;;10.08;4.95;;;;;;;11.00;70.90;102500.38;1532641;92;21635;-87
2022/09/06 03:47:03;;;;;;;8.58;5.53;;;;;;;11.03;70.94;102498.31;1537059;91;21693;-84
2022/09/06 03:49:30;;;;;;;8.03;5.10;;;;;;;11.03;70.90;102497.88;1537457;91;22045;-84
2022/09/06 03:51:57;;;;;;;9.60;5.40;;;;;;;11.03;70.90;102497.88;1539330;91;21798;-88
2022/09/06 03:54:24;;;;;;;8.18;4.80;;;;;;;11.04;70.88;102497.50;1537418;93;21607;-90
2022/09/06 03:56:50;;;;;;;8.90;4.90;;;;;;;11.04;70.85;102501.45;1536143;92;21150;-91
2022/09/06 03:59:17;;;;;;;6.72;4.53;;;;;;;11.07;70.97;102500.27;1541267;91;21227;-86
2022/09/06 04:01:44;;;;;;;6.12;4.60;;;;;;;11.12;70.91;102500.09;1547243;92;21160;-84
2022/09/06 04:04:11;;;;;;;9.90;5.17;;;;;;;11.16;70.87;102492.83;1541726;91;21775;-84
2022/09/06 04:06:38;;;;;;;8.50;4.67;;;;;;;11.24;70.95;102490.58;1551590;91;21124;-84
2022/09/06 04:09:04;;;;;;;7.10;4.33;;;;;;;11.47;71.22;102491.31;1555244;91;21119;-85
2022/09/06 04:11:31;;;;;;;6.75;4.53;;;;;;;11.58;70.67;102484.33;1541689;91;21358;-85
2022/09/06 04:13:58;;;;;;;11.85;4.80;;;;;;;11.55;70.42;102481.56;1520284;93;22341;-86
2022/09/06 04:16:25;;;;;;;5.53;4.00;;;;;;;11.52;70.36;102486.25;1539393;93;22568;-87
2022/09/06 04:18:51;;;;;;;8.35;4.30;;;;;;;11.51;70.33;102481.83;1539554;93;21644;-88
2022/09/06 04:21:18;;;;;;;8.00;4.33;;;;;;;11.52;70.37;102484.04;1541609;91;21616;-86
2022/09/06 04:23:45;;;;;;;10.18;4.75;;;;;;;11.54;70.36;102485.02;1553908;91;21158;-88
2022/09/06 04:26:11;;;;;;;10.03;4.85;;;;;;;11.58;70.35;102487.89;1538999;93;21157;-87
2022/09/06 04:28:38;;;;;;;6.45;4.25;;;;;;;11.61;70.23;102488.02;1538706;93;21725;-85
2022/09/06 04:31:05;;;;;;;6.50;4.35;;;;;;;11.66;70.28;102492.22;1547274;91;21222;-87
2022/09/06 04:33:33;;;;;;;6.87;4.55;;;;;;;11.75;70.28;102487.39;1539259;92;21970;-86
2022/09/06 04:36:00;;;;;;;8.73;4.20;;;;;;;12.05;70.66;102481.37;1541030;91;21175;-85
2022/09/06 04:38:28;;;;;;;5.85;3.75;;;;;;;13.44;72.22;102479.92;1546292;91;21119;-90
2022/09/06 04:40:55;;;;;;;8.45;3.80;;;;;;;15.10;71.50;102481.77;1540166;92;21803;-86
2022/09/06 04:43:22;;;;;;;8.35;4.05;;;;;;;16.11;69.15;102480.59;1541607;91;21141;-88
2022/09/06 04:45:49;;;;;;;12.18;4.33;;;;;;;16.89;68.00;102480.19;1541271;92;21151;-88
2022/09/06 04:48:16;;;;;;;8.33;4.12;;;;;;;17.28;66.20;102476.72;1554381;90;21201;-89
2022/09/06 04:50:44;;;;;;;6.50;4.03;;;;;;;16.85;64.15;102479.61;1558503;91;21672;-91
2022/09/06 04:53:11;;;;;;;6.25;3.90;;;;;;;16.14;63.78;102481.99;1551304;91;21859;-86
2022/09/06 04:55:38;;;;;;;6.65;4.17;;;;;;;15.71;63.94;102485.95;1552463;91;21158;-87
2022/09/06 04:58:05;;;;;;;7.53;3.92;;;;;;;15.36;63.98;102486.63;1543743;92;21527;-85
2022/09/06 05:00:47;;;;;;;5.80;3.95;;;;;;;15.08;64.10;102487.89;1516554;93;21175;-87
2022/09/06 05:03:10;;;;;;;13.00;4.65;;;;;;;14.84;64.01;102490.58;1540099;91;21250;-86
2022/09/06 05:05:37;;;;;;;7.37;4.28;;;;;;;14.48;64.04;102485.30;1518433;93;21948;-88
2022/09/06 05:08:13;;;;;;;5.62;3.72;;;;;;;14.20;64.21;102493.53;1512466;92;21170;-86
2022/09/06 05:10:40;;;;;;;8.65;4.37;;;;;;;14.04;64.54;102495.14;1530009;91;21155;-85
2022/09/06 05:13:10;;;;;;;8.68;4.95;;;;;;;13.94;64.91;102490.31;1539921;91;21787;-87
2022/09/06 05:15:43;;;;;;;9.53;4.67;;;;;;;13.84;64.97;102489.48;1539956;91;21201;-88
2022/09/06 05:18:09;;;;;;;9.93;4.15;;;;;;;13.75;65.12;102488.69;1552021;91;21786;-87
2022/09/06 05:20:37;;;;;;;7.53;4.28;;;;;;;13.77;65.51;102485.67;1535885;93;21144;-86
2022/09/06 05:23:03;;;;;;;8.88;4.17;;;;;;;13.90;65.40;102488.39;1515289;93;21178;-87
2022/09/06 05:25:30;;;;;;;9.70;4.20;;;;;;;13.97;65.45;102488.69;1522916;93;21714;-87
2022/09/06 05:27:57;;;;;;;12.68;4.78;;;;;;;14.12;65.25;102495.42;1524897;93;21191;-85
2022/09/06 05:30:24;;;;;;;9.13;4.42;;;;;;;14.24;65.18;102491.91;1531932;92;21788;-86
2022/09/06 05:32:51;;;;;;;11.08;6.30;;;;;;;14.36;65.00;102491.48;1552652;91;21162;-86
2022/09/06 05:35:17;;;;;;;9.88;4.22;;;;;;;14.51;64.96;102494.70;1554197;92;21619;-87
2022/09/06 05:37:44;;;;;;;8.10;3.40;;;;;;;14.66;64.55;102496.11;1552845;91;21128;-87
2022/09/06 05:40:11;;;;;;;5.45;3.37;;;;;;;14.78;64.46;102496.13;1549271;92;21131;-86
2022/09/06 05:42:39;;;;;;;7.30;2.90;;;;;;;14.93;64.33;102495.78;1544461;91;21783;-85
2022/09/06 05:45:09;;;;;;;3.95;2.77;;;;;;;15.08;64.08;102499.82;1547985;91;21141;-86
2022/09/06 05:47:37;;;;;;;7.05;3.00;;;;;;;15.24;63.72;102489.29;1545315;91;21144;-87
2022/09/06 05:50:06;;;;;;;5.20;2.37;;;;;;;15.39;63.42;102488.91;1550053;91;21147;-86
2022/09/06 05:52:34;;;;;;;4.67;2.52;;;;;;;15.40;62.78;102488.06;1556172;91;21661;-86
2022/09/06 05:55:01;;;;;;;4.67;2.10;;;;;;;15.41;62.48;102493.43;1547284;91;21994;-87
2022/09/06 05:57:28;;;;;;;3.55;2.10;;;;;;;15.41;62.41;102492.50;1547544;91;21178;-88
2022/09/06 05:59:55;;;;;;;3.55;2.00;;;;;;;15.42;62.23;102489.91;1546535;91;21208;-86
2022/09/06 06:02:22;;;;;;;2.80;1.67;;;;;;;15.47;62.13;102489.64;1582700;89;21140;-87
2022/09/06 06:04:50;;;;;;;3.45;2.20;;;;;;;15.45;61.81;102490.45;1579488;89;21750;-87
2022/09/06 06:07:17;;;;;;;5.65;2.62;;;;;;;15.42;61.67;102485.92;1542916;91;21282;-87
2022/09/06 06:09:44;;;;;;;5.62;2.10;;;;;;;15.49;61.58;102491.02;1552713;90;21085;-87
2022/09/06 06:12:11;;;;;;;3.20;1.80;;;;;;;15.61;61.60;102485.20;1577156;90;21132;-87
2022/09/06 06:14:48;;;;;;;3.42;1.70;;;;;;;15.76;61.53;102491.02;1576275;90;21161;-86
2022/09/06 06:17:15;;;;;;;3.00;1.65;;;;;;;15.84;61.11;102485.55;1577706;90;21155;-87
2022/09/06 06:19:41;;;;;;;3.83;1.50;;;;;;;15.87;60.89;102486.95;1572922;89;21729;-88
2022/09/06 06:22:08;;;;;;;4.92;1.90;;;;;;;15.88;60.49;102482.13;1564008;90;21528;-88
2022/09/06 06:24:35;;;;;;;5.25;1.80;;;;;;;15.84;60.45;102484.63;1579748;88;21133;-88
2022/09/06 06:27:03;;;;;;;4.17;2.08;;;;;;;15.88;60.44;102479.47;1572508;90;21163;-88
2022/09/06 06:29:30;;;;;;;6.92;1.77;;;;;;;15.91;60.43;102481.31;1579483;90;21567;-88
2022/09/06 06:31:57;;;;;;;5.08;1.80;;;;;;;15.78;60.12;102480.46;1581468;88;21874;-89
2022/09/06 06:34:24;;;;;;;3.45;1.50;;;;;;;15.67;60.14;102485.39;1579487;90;21137;-88
2022/09/06 06:36:51;;;;;;;2.15;1.60;;;;;;;15.51;60.18;102485.34;1579092;90;21095;-88
2022/09/06 06:39:18;;;;;;;2.90;1.67;;;;;;;15.38;60.42;102490.66;1555775;90;21107;-87
2022/09/06 06:41:44;;;;;;;2.45;1.37;;;;;;;15.33;60.58;102482.97;1575895;90;21872;-87
2022/09/06 06:44:11;;;;;;;4.92;1.60;;;;;;;15.22;60.74;102482.63;1577576;90;22839;-87
2022/09/06 06:46:40;;;;;;;2.85;1.70;;;;;;;15.10;60.74;102479.55;1574108;90;21129;-87
2022/09/06 06:49:07;;;;;;;1.87;1.60;;;;;;;14.96;60.95;102472.03;1579820;90;21121;-87
2022/09/06 06:51:38;;;;;;;2.72;1.45;;;;;;;14.86;61.09;102471.65;1579208;90;21076;-88
2022/09/06 06:54:05;;;;;;;3.40;1.60;;;;;;;14.80;61.27;102471.02;1570181;90;21790;-87
2022/09/06 06:56:43;;;;;;;2.05;1.45;;;;;;;14.75;61.42;102471.27;1579088;90;21820;-88
2022/09/06 06:59:10;;;;;;;4.75;1.40;;;;;;;14.72;61.55;102481.78;1574093;90;21130;-87
2022/09/06 07:01:37;;;;;;;3.58;1.45;;;;;;;14.64;61.61;102480.19;1551297;91;21100;-87
2022/09/06 07:04:04;;;;;;;2.15;1.20;;;;;;;14.59;61.67;102477.78;1538765;93;21138;-87
2022/09/06 07:06:47;;;;;;;2.45;1.42;;;;;;;14.52;61.66;102476.61;1572985;90;21183;-88
2022/09/06 07:09:14;;;;;;;3.58;1.60;;;;;;;14.48;61.83;102481.33;1540474;92;21777;-88
2022/09/06 07:11:41;;;;;;;1.22;1.10;;;;;;;14.48;62.12;102483.08;1544274;92;21633;-87
2022/09/06 07:14:08;;;;;;;2.35;1.40;;;;;;;14.49;62.11;102479.56;1539215;92;21190;-88
2022/09/06 07:16:35;;;;;;;1.15;0.75;;;;;;;14.47;62.20;102480.86;1536170;92;21187;-87
2022/09/06 07:19:04;;;;;;;1.60;0.98;;;;;;;14.50;62.29;102473.44;1537953;92;22362;-87
2022/09/06 07:21:30;;;;;;;2.00;1.10;;;;;;;14.48;61.91;102472.05;1538470;92;21766;-87
2022/09/06 07:23:59;;;;;;;1.40;0.80;;;;;;;14.42;61.92;102471.83;1539310;92;21165;-87
2022/09/06 07:26:28;;;;;;;1.42;0.70;;;;;;;14.41;62.06;102476.64;1538467;92;21143;-88
2022/09/06 07:28:58;;;;;;;1.92;1.00;;;;;;;14.46;62.17;102475.50;1519134;92;21600;-88
2022/09/06 07:31:25;;;;;;;4.83;1.67;;;;;;;14.51;62.25;102472.60;1535648;92;21139;-87
2022/09/06 07:33:52;;;;;;;3.30;1.07;;;;;;;14.54;62.20;102469.61;1539797;92;21834;-87
2022/09/06 07:36:19;;;;;;;0.60;0.60;;;;;;;14.59;62.17;102472.48;1535312;92;21808;-88
2022/09/06 07:38:50;;;;;;;2.25;0.72;;;;;;;14.63;62.04;102466.88;1541198;92;33122;-89
2022/09/06 07:41:17;;;;;;;3.60;2.00;;;;;;;14.66;62.10;102470.94;1540452;92;21739;-87
2022/09/06 07:43:44;;;;;;;0.95;0.88;;;;;;;14.67;61.92;102469.67;1527522;91;21117;-86
2022/09/06 07:46:15;;;;;;;1.05;0.62;;;;;;;14.72;61.80;102471.17;1545282;91;22635;-86
2022/09/06 07:48:43;;;;;;;0.62;0.62;;;;;;;14.72;61.69;102469.42;1518859;91;21152;-86
2022/09/06 07:51:19;;;;;;;1.50;0.80;;;;;;;14.77;61.64;102473.54;1578645;89;21286;-87
2022/09/06 07:53:51;;;;;;;3.08;1.22;;;;;;;14.80;61.64;102471.02;1578468;89;21132;-86
2022/09/06 07:56:20;;;;;;;9.78;6.47;;;;;;;14.84;61.61;102464.07;1580715;90;21032;-86
2022/09/06 07:58:47;;;;;;;6.75;4.28;;;;;;;14.89;61.66;102461.16;1577139;90;21796;-85
2022/09/06 08:01:36;;;;;;;30.10;15.35;;;;;;;14.93;61.54;102459.09;1562940;90;21658;-86
2022/09/06 08:04:09;;;;;;;5.97;3.25;;;;;;;14.97;61.55;102460.55;1573442;90;21177;-88
2022/09/06 08:06:38;;;;;;;3.42;1.40;;;;;;;15.00;61.41;102456.20;1675737;83;21369;-87
2022/09/06 08:09:06;;;;;;;3.20;0.82;;;;;;;15.02;61.05;102458.52;1669648;84;21096;-86
2022/09/06 08:11:34;;;;;;;1.57;1.00;;;;;;;15.02;60.85;102453.20;1673628;84;22182;-86
2022/09/06 08:14:03;;;;;;;5.28;1.05;;;;;;;15.03;60.62;102453.23;1676858;84;21106;-86
2022/09/06 08:16:30;;;;;;;6.78;1.10;;;;;;;15.07;60.38;102456.89;1667808;84;21097;-88
2022/09/06 08:19:03;;;;;;;1.30;0.70;;;;;;;15.06;60.21;102453.34;1672332;83;21074;-87
2022/09/06 08:21:31;;;;;;;4.75;2.27;;;;;;;15.06;60.16;102446.72;1656823;84;21428;-86
2022/09/06 08:24:00;;;;;;;8.10;4.37;;;;;;;15.12;60.36;102449.56;1682685;84;21805;-86
2022/09/06 08:26:27;;;;;;;4.53;1.77;;;;;;;15.20;60.55;102444.95;1677565;84;21030;-86
2022/09/06 08:28:59;;;;;;;1.65;0.80;;;;;;;15.31;60.30;102455.48;1682786;84;21057;-86
2022/09/06 08:31:30;;;;;;;23.05;2.27;;;;;;;15.33;60.04;102444.09;1675010;84;21616;-86
2022/09/06 08:33:58;;;;;;;4.75;1.17;;;;;;;15.35;59.65;102446.38;1645046;86;21089;-85
2022/09/06 08:36:31;;;;;;;9.93;1.47;;;;;;;15.39;59.78;102437.16;1681990;84;21701;-86
2022/09/06 08:38:59;;;;;;;2.62;0.40;;;;;;;15.48;59.68;102438.78;1680459;84;21635;-86
2022/09/06 08:41:33;;;;;;;2.30;0.50;;;;;;;15.53;58.99;102441.16;1645591;86;21776;-86
2022/09/06 08:44:28;;;;;;;1.42;0.50;;;;;;;15.53;58.73;102437.19;1641804;85;21133;-87
2022/09/06 08:46:59;;;;;;;1.02;0.72;;;;;;;15.58;58.86;102426.70;1577634;90;21136;-87
2022/09/06 08:49:29;;;;;;;5.00;0.82;;;;;;;15.67;58.87;102432.30;1569733;90;21783;-87
2022/09/06 08:52:40;;;;;;;1.65;0.70;;;;;;;15.79;58.68;102437.14;1568467;90;21105;-86
2022/09/06 08:55:36;;;;;;;0.72;0.50;;;;;;;15.87;58.29;102430.30;1572037;89;21159;-88
2022/09/06 08:58:34;;;;;;;3.22;0.60;;;;;;;15.93;58.00;102426.08;1563829;89;21218;-88
2022/09/06 09:01:21;;;;;;;0.88;0.53;;;;;;;16.02;57.74;102425.43;1614949;86;21701;-88
2022/09/06 09:03:48;;;;;;;0.80;0.42;;;;;;;16.19;57.32;102417.95;1611042;86;21799;-88
2022/09/06 09:06:15;;;;;;;1.32;1.07;;;;;;;16.37;56.89;102425.95;1621910;86;21642;-88
2022/09/06 09:09:08;;;;;;;11.18;7.33;;;;;;;16.58;56.79;102422.58;1608360;88;21127;-87
2022/09/06 09:11:36;;;;;;;11.10;7.28;;;;;;;16.90;56.74;102411.92;1609098;86;21205;-88
2022/09/06 09:14:11;;;;;;;6.05;3.95;;;;;;;17.28;56.42;102410.19;1619091;86;21213;-88
2022/09/06 09:16:37;;;;;;;39.30;24.43;;;;;;;17.46;55.82;102408.41;1616789;86;21771;-88
2022/09/06 09:19:04;;;;;;;8.93;5.78;;;;;;;17.57;55.22;102405.07;1585518;88;21118;-88
2022/09/06 09:21:40;;;;;;;3.50;1.42;;;;;;;17.67;54.61;102406.66;1632828;85;21086;-87
2022/09/06 09:24:10;;;;;;;1.92;1.05;;;;;;;17.75;54.14;102400.59;1647681;85;22164;-86
2022/09/06 09:26:51;;;;;;;1.75;0.80;;;;;;;17.76;53.21;102404.63;1646532;85;21083;-86
2022/09/06 09:29:18;;;;;;;2.20;0.60;;;;;;;17.73;52.61;102403.22;1640206;87;22598;-86
2022/09/06 09:31:50;;;;;;;3.02;0.60;;;;;;;17.69;52.02;102404.92;1644919;86;21094;-89
2022/09/06 09:34:37;;;;;;;0.65;0.40;;;;;;;17.66;51.66;102398.22;1646321;85;21071;-87
2022/09/06 09:37:25;;;;;;;1.05;0.68;;;;;;;17.66;51.64;102399.95;1645621;87;21162;-87
2022/09/06 09:39:53;;;;;;;4.03;2.20;;;;;;;17.63;51.37;102391.48;1646491;86;21093;-88
2022/09/06 09:42:30;;;;;;;2.67;1.72;;;;;;;17.68;51.25;102392.48;1646524;87;21829;-88
2022/09/06 09:44:57;;;;;;;1.47;0.60;;;;;;;17.78;51.05;102386.92;1641213;86;21093;-87
2022/09/06 09:47:29;;;;;;;1.07;0.45;;;;;;;17.81;50.64;102379.41;1645339;85;21094;-86
2022/09/06 09:49:58;;;;;;;4.65;3.20;;;;;;;17.79;50.35;102373.16;1645580;87;21086;-88
2022/09/06 09:52:28;;;;;;;2.77;0.90;;;;;;;17.76;50.48;102375.78;1645009;85;21168;-87
2022/09/06 09:55:01;;;;;;;3.25;0.60;;;;;;;17.78;50.24;102384.25;1645365;85;21818;-87
2022/09/06 09:57:29;;;;;;;;;;;;;;;17.61;49.71;102377.23;1648202;85;21587;-87
2022/09/06 10:00:05;;;;;;;8.43;1.20;;;;;;;17.48;49.37;102377.83;1627748;85;20294;-87
2022/09/06 10:02:39;;;;;;;4.35;1.20;;;;;;;17.41;49.49;102366.13;1675666;83;21048;-87
2022/09/06 10:05:14;;;;;;;5.55;1.40;;;;;;;17.38;49.47;102367.81;1668176;85;21116;-86
2022/09/06 10:07:53;;;;;;;1.22;0.60;;;;;;;17.36;49.52;102362.48;1634876;86;21744;-87
2022/09/06 10:10:26;;;;;;;5.67;1.05;;;;;;;17.39;49.40;102367.86;1665302;85;21918;-88
2022/09/06 10:13:11;;;;;;;1.00;0.50;;;;;;;17.34;49.15;102364.19;1660036;85;21102;-88
2022/09/06 10:15:39;;;;;;;1.12;0.60;;;;;;;17.36;48.76;102365.15;1668021;85;21583;-88
2022/09/06 10:18:32;;;;;;;1.87;0.57;;;;;;;17.29;48.16;102368.53;1654541;86;21159;-89
2022/09/06 10:21:14;;;;;;;19.20;1.55;;;;;;;17.26;48.06;102368.45;1669111;85;21766;-88
2022/09/06 10:24:03;;;;;;;2.72;1.87;;;;;;;17.29;47.65;102367.20;1650758;86;21566;-88
2022/09/06 10:26:47;;;;;;;0.33;0.33;;;;;;;17.33;47.77;102365.51;1673039;84;21075;-87
2022/09/06 10:29:14;;;;;;;5.58;0.82;;;;;;;17.36;47.43;102358.91;1647151;86;21067;-87
2022/09/06 10:32:14;;;;;;;12.82;1.47;;;;;;;17.33;46.97;102359.75;1677772;85;21131;-87
2022/09/06 10:34:50;;;;;;;0.88;0.50;;;;;;;17.30;46.78;102362.32;1655603;85;21593;-86
2022/09/06 10:37:48;;;;;;;1.57;0.53;;;;;;;17.17;46.09;102362.91;1646559;85;21560;-86
2022/09/06 10:40:47;;;;;;;0.90;0.42;;;;;;;17.12;46.08;102359.23;1667365;85;21093;-86
2022/09/06 10:43:20;;;;;;;0.33;0.20;;;;;;;17.11;46.00;102362.33;1630823;86;21155;-88
2022/09/06 10:46:00;;;;;;;0.50;0.37;;;;;;;17.13;45.93;102353.06;1629491;86;21086;-88
2022/09/06 10:48:44;;;;;;;1.77;0.62;;;;;;;17.22;46.01;102354.61;1660880;85;22558;-86
2022/09/06 10:51:23;;;;;;;1.22;0.80;;;;;;;17.28;45.81;102348.97;1672193;85;21642;-88
2022/09/06 10:53:57;;;;;;;0.65;0.40;;;;;;;17.38;45.56;102351.44;1668344;85;22033;-86
2022/09/06 10:56:46;;;;;;;1.22;0.60;;;;;;;17.42;45.27;102357.30;1650285;86;21525;-87
2022/09/06 10:59:29;;;;;;;0.75;0.70;;;;;;;17.48;45.02;102360.52;1620378;84;21138;-86
2022/09/06 11:02:38;;;;;;;1.20;0.50;;;;;;;17.53;44.56;102354.88;1684431;84;21907;-89
2022/09/06 11:05:11;;;;;;;2.67;0.57;;;;;;;17.51;44.55;102351.70;1674350;84;21081;-86
2022/09/06 11:07:54;;;;;;;0.40;0.40;;;;;;;17.47;44.25;102349.39;1653449;85;21277;-86
2022/09/06 11:10:30;;;;;;;0.88;0.70;;;;;;;17.48;44.23;102348.55;1675229;85;21389;-87
2022/09/06 11:13:15;;;;;;;0.55;0.55;;;;;;;17.49;44.27;102339.67;1673960;83;21086;-88
2022/09/06 11:16:08;;;;;;;0.68;0.60;;;;;;;17.54;44.09;102339.35;1671885;83;21730;-87
2022/09/06 11:19:04;;;;;;;1.05;0.53;;;;;;;17.50;43.92;102330.84;1640033;86;21078;-87
2022/09/06 11:21:54;;;;;;;1.98;0.40;;;;;;;17.49;43.54;102324.63;1689322;83;21898;-87
2022/09/06 11:25:09;;;;;;;0.40;0.33;;;;;;;17.42;43.39;102325.80;1676784;83;21338;-87
2022/09/06 11:27:39;;;;;;;2.85;0.42;;;;;;;17.38;43.43;102322.56;1678363;83;21191;-86
2022/09/06 11:30:08;;;;;;;2.30;1.00;;;;;;;17.36;43.48;102317.64;1654279;85;22835;-88
2022/09/06 11:32:42;;;;;;;1.90;0.55;;;;;;;17.36;43.39;102311.92;1644880;85;21629;-88
2022/09/06 11:35:23;;;;;;;2.40;0.70;;;;;;;17.31;43.09;102308.25;1689589;83;21644;-88
2022/09/06 11:38:06;;;;;;;0.47;0.33;;;;;;;17.29;43.10;102312.64;1681058;83;21152;-88
2022/09/06 11:40:43;;;;;;;0.85;0.70;;;;;;;17.27;43.03;102311.27;1681566;83;21636;-88
2022/09/06 11:43:46;;;;;;;0.72;0.47;;;;;;;17.23;43.20;102297.44;1682626;83;21883;-87
2022/09/06 11:46:39;;;;;;;2.30;0.57;;;;;;;17.22;43.04;102302.27;1685313;83;21102;-88
2022/09/06 11:49:15;;;;;;;1.02;0.70;;;;;;;17.23;43.09;102294.77;1666739;85;21054;-88
2022/09/06 11:51:43;;;;;;;0.53;0.40;;;;;;;17.28;43.36;102301.07;1638776;86;21204;-87
2022/09/06 11:54:26;;;;;;;0.53;0.50;;;;;;;17.32;43.37;102288.73;1662007;85;21113;-86
2022/09/06 11:57:14;;;;;;;1.10;0.60;;;;;;;17.34;43.29;102293.66;1662364;85;21757;-88